createdAt,value
2022-10-10T00:00:10.508Z,6.35
2022-10-10T00:02:37.113Z,5.63
2022-10-10T00:05:04.167Z,5.88
2022-10-10T00:07:30.769Z,6.20
2022-10-10T00:09:57.340Z,5.78
2022-10-10T00:12:23.927Z,6.47
2022-10-10T00:14:50.483Z,6.32
2022-10-10T00:17:17.094Z,6.40
2022-10-10T00:19:43.735Z,6.40
2022-10-10T00:22:10.277Z,6.57
2022-10-10T00:24:36.780Z,6.93
2022-10-10T00:27:03.592Z,5.80
2022-10-10T00:29:30.167Z,6.30
2022-10-10T00:31:56.740Z,6.07
2022-10-10T00:34:23.247Z,6.60
2022-10-10T00:36:49.786Z,6.30
2022-10-10T00:39:16.309Z,6.97
2022-10-10T00:41:43.042Z,6.13
2022-10-10T00:44:13.268Z,6.82
2022-10-10T00:46:40.773Z,6.50
2022-10-10T00:49:16.148Z,6.10
2022-10-10T00:51:45.803Z,6.90
2022-10-10T00:54:14.573Z,6.90
2022-10-10T00:56:52.053Z,6.88
2022-10-10T00:59:20.021Z,6.65
2022-10-10T01:01:47.228Z,6.85
2022-10-10T01:04:31.539Z,6.53
2022-10-10T01:06:59.835Z,6.32
2022-10-10T01:09:30.518Z,6.55
2022-10-10T01:12:24.177Z,6.15
2022-10-10T01:15:21.816Z,6.32
2022-10-10T01:17:56.723Z,6.72
2022-10-10T01:20:44.517Z,7.00
2022-10-10T01:23:38.687Z,6.50
2022-10-10T01:26:23.627Z,6.47
2022-10-10T01:28:59.470Z,7.03
2022-10-10T01:31:29.757Z,7.03
2022-10-10T01:34:24.681Z,6.85
2022-10-10T01:37:00.769Z,7.18
2022-10-10T01:40:02.232Z,6.95
2022-10-10T01:42:37.195Z,7.03
2022-10-10T01:45:04.832Z,6.32
2022-10-10T01:47:32.925Z,6.38
2022-10-10T01:50:07.990Z,6.43
2022-10-10T01:53:09.827Z,6.43
2022-10-10T01:55:52.678Z,6.70
2022-10-10T01:58:38.047Z,6.47
2022-10-10T02:01:14.256Z,6.55
2022-10-10T02:03:47.624Z,6.10
2022-10-10T02:06:53.155Z,5.85
2022-10-10T02:09:26.222Z,6.20
2022-10-10T02:11:54.052Z,6.40
2022-10-10T02:14:24.016Z,5.93
2022-10-10T02:16:54.574Z,6.03
2022-10-10T02:19:23.192Z,6.72
2022-10-10T02:21:52.906Z,6.60
2022-10-10T02:24:22.693Z,6.30
2022-10-10T02:26:59.548Z,6.15
2022-10-10T02:29:31.763Z,7.25
2022-10-10T02:32:11.285Z,7.05
2022-10-10T02:34:42.745Z,6.07
2022-10-10T02:37:13.272Z,7.13
2022-10-10T02:39:47.442Z,6.68
2022-10-10T02:42:17.700Z,6.32
2022-10-10T02:44:45.847Z,6.38
2022-10-10T02:47:12.733Z,6.60
2022-10-10T02:49:39.835Z,6.90
2022-10-10T02:52:07.428Z,6.75
2022-10-10T02:54:33.979Z,6.28
2022-10-10T02:57:00.594Z,6.65
2022-10-10T02:59:27.225Z,6.90
2022-10-10T03:01:53.741Z,6.78
2022-10-10T03:04:20.583Z,6.70
2022-10-10T03:06:47.639Z,5.75
2022-10-10T03:09:14.344Z,6.40
2022-10-10T03:11:41.262Z,6.90
2022-10-10T03:14:07.882Z,6.05
2022-10-10T03:16:34.686Z,6.43
2022-10-10T03:19:03.283Z,6.68
2022-10-10T03:21:29.959Z,6.35
2022-10-10T03:23:57.455Z,6.25
2022-10-10T03:26:24.043Z,7.13
2022-10-10T03:28:50.984Z,6.68
2022-10-10T03:31:17.635Z,6.82
2022-10-10T03:33:44.199Z,6.60
2022-10-10T03:36:10.723Z,6.43
2022-10-10T03:38:39.746Z,6.07
2022-10-10T03:41:06.634Z,7.05
2022-10-10T03:43:33.234Z,6.55
2022-10-10T03:45:59.862Z,6.50
2022-10-10T03:48:26.352Z,6.85
2022-10-10T03:50:52.902Z,6.28
2022-10-10T03:53:19.558Z,6.38
2022-10-10T03:55:48.186Z,5.90
2022-10-10T03:58:14.852Z,6.38
2022-10-10T04:00:41.457Z,6.35
2022-10-10T04:03:09.280Z,6.20
2022-10-10T04:05:39.136Z,5.97
2022-10-10T04:08:06.527Z,6.60
2022-10-10T04:10:33.444Z,6.25
2022-10-10T04:13:00.297Z,6.95
2022-10-10T04:15:26.878Z,6.38
2022-10-10T04:17:53.598Z,6.28
2022-10-10T04:20:20.262Z,6.25
2022-10-10T04:22:46.812Z,6.68
2022-10-10T04:25:13.970Z,6.45
2022-10-10T04:27:40.801Z,6.82
2022-10-10T04:30:07.896Z,6.20
2022-10-10T04:32:34.706Z,6.50
2022-10-10T04:35:01.425Z,6.53
2022-10-10T04:37:28.173Z,6.50
2022-10-10T04:39:55.265Z,6.43
2022-10-10T04:42:22.415Z,6.63
2022-10-10T04:44:48.951Z,6.85
2022-10-10T04:47:15.586Z,6.38
2022-10-10T04:49:42.108Z,6.63
2022-10-10T04:52:10.691Z,6.60
2022-10-10T04:54:37.662Z,6.47
2022-10-10T04:57:04.961Z,7.70
2022-10-10T04:59:31.760Z,6.90
2022-10-10T05:02:01.945Z,6.57
2022-10-10T05:04:28.702Z,6.70
2022-10-10T05:06:55.235Z,7.63
2022-10-10T05:09:21.872Z,6.75
2022-10-10T05:11:49.502Z,6.88
2022-10-10T05:14:16.140Z,7.43
2022-10-10T05:16:43.078Z,7.10
2022-10-10T05:19:12.341Z,7.07
2022-10-10T05:21:38.856Z,6.82
2022-10-10T05:24:05.794Z,7.38
2022-10-10T05:26:32.433Z,6.65
2022-10-10T05:28:59.129Z,7.00
2022-10-10T05:31:25.685Z,7.70
2022-10-10T05:33:52.289Z,6.82
2022-10-10T05:36:18.841Z,6.70
2022-10-10T05:38:45.425Z,6.00
2022-10-10T05:41:12.633Z,6.68
2022-10-10T05:43:39.498Z,6.65
2022-10-10T05:46:06.258Z,6.65
2022-10-10T05:48:32.927Z,6.57
2022-10-10T05:51:01.072Z,6.93
2022-10-10T05:53:29.661Z,6.85
2022-10-10T05:55:56.714Z,6.78
2022-10-10T05:58:23.328Z,6.75
2022-10-10T06:00:49.946Z,6.28
2022-10-10T06:03:17.200Z,6.55
2022-10-10T06:05:45.916Z,7.47
2022-10-10T06:08:12.908Z,7.50
2022-10-10T06:10:42.566Z,6.95
2022-10-10T06:13:10.521Z,6.22
2022-10-10T06:15:37.199Z,6.95
2022-10-10T06:18:04.538Z,7.80
2022-10-10T06:20:34.619Z,7.20
2022-10-10T06:23:02.008Z,7.07
2022-10-10T06:25:40.113Z,7.28
2022-10-10T06:28:08.114Z,6.90
2022-10-10T06:30:35.152Z,7.25
2022-10-10T06:33:01.971Z,7.93
2022-10-10T06:35:28.873Z,9.35
2022-10-10T06:37:55.524Z,7.95
2022-10-10T06:40:22.364Z,7.70
2022-10-10T06:42:49.380Z,7.22
2022-10-10T06:45:17.940Z,8.98
2022-10-10T06:47:44.538Z,7.75
2022-10-10T06:50:11.347Z,8.18
2022-10-10T06:52:37.905Z,8.30
2022-10-10T06:55:04.760Z,8.38
2022-10-10T06:57:31.392Z,8.70
2022-10-10T06:59:57.890Z,8.05
2022-10-10T07:02:25.041Z,8.23
2022-10-10T07:04:51.717Z,8.13
2022-10-10T07:07:18.332Z,9.80
2022-10-10T07:09:45.016Z,9.27
2022-10-10T07:12:12.500Z,9.32
2022-10-10T07:14:39.069Z,10.82
2022-10-10T07:17:05.709Z,9.43
2022-10-10T07:19:32.360Z,10.13
2022-10-10T07:21:58.983Z,9.55
2022-10-10T07:24:25.699Z,9.52
2022-10-10T07:27:02.349Z,9.15
2022-10-10T07:29:33.294Z,9.27
2022-10-10T07:32:00.045Z,8.68
2022-10-10T07:34:27.068Z,7.85
2022-10-10T07:36:53.613Z,8.80
2022-10-10T07:39:21.797Z,7.10
2022-10-10T07:41:52.801Z,7.68
2022-10-10T07:44:20.475Z,6.93
2022-10-10T07:46:47.346Z,6.68
2022-10-10T07:49:14.089Z,6.35
2022-10-10T07:51:40.862Z,5.53
2022-10-10T07:54:07.623Z,5.95
2022-10-10T07:56:34.399Z,5.50
2022-10-10T07:59:01.049Z,4.65
2022-10-10T08:01:27.812Z,5.20
2022-10-10T08:03:56.061Z,4.93
2022-10-10T08:06:22.812Z,5.47
2022-10-10T08:08:52.022Z,5.88
2022-10-10T08:11:21.667Z,4.82
2022-10-10T08:13:51.212Z,5.43
2022-10-10T08:16:18.951Z,5.78
2022-10-10T08:18:45.700Z,5.55
2022-10-10T08:21:15.690Z,5.78
2022-10-10T08:23:42.847Z,5.70
2022-10-10T08:26:11.972Z,5.18
2022-10-10T08:28:39.479Z,6.78
2022-10-10T08:31:06.865Z,6.05
2022-10-10T08:33:33.953Z,5.10
2022-10-10T08:36:05.594Z,5.38
2022-10-10T08:38:32.387Z,5.72
2022-10-10T08:41:00.664Z,5.40
2022-10-10T08:43:34.738Z,5.25
2022-10-10T08:46:14.297Z,5.50
2022-10-10T08:48:41.787Z,4.65
2022-10-10T08:51:14.320Z,4.80
2022-10-10T08:53:48.436Z,4.60
2022-10-10T08:56:21.347Z,4.55
2022-10-10T08:58:55.512Z,4.85
2022-10-10T09:01:28.636Z,5.03
2022-10-10T09:04:00.838Z,5.10
2022-10-10T09:06:54.858Z,5.55
2022-10-10T09:09:49.976Z,4.97
2022-10-10T09:12:48.717Z,5.40
2022-10-10T09:15:33.849Z,5.40
2022-10-10T09:18:21.752Z,5.80
2022-10-10T09:20:56.539Z,5.40
2022-10-10T09:24:04.637Z,5.10
2022-10-10T09:26:38.341Z,5.13
2022-10-10T09:29:22.241Z,6.65
2022-10-10T09:34:41.564Z,5.00
2022-10-10T09:37:29.457Z,4.53
2022-10-10T09:40:14.985Z,4.80
2022-10-10T09:42:44.464Z,4.28
2022-10-10T09:45:35.553Z,4.07
2022-10-10T09:48:02.795Z,4.70
2022-10-10T09:50:29.509Z,4.60
2022-10-10T09:52:57.093Z,4.70
2022-10-10T09:55:30.709Z,4.22
2022-10-10T09:58:03.082Z,4.18
2022-10-10T10:00:36.250Z,4.03
2022-10-10T10:03:09.167Z,4.68
2022-10-10T10:05:35.783Z,4.43
2022-10-10T10:08:02.345Z,4.07
2022-10-10T10:10:30.377Z,4.10
2022-10-10T10:12:57.326Z,4.78
2022-10-10T10:15:25.871Z,4.50
2022-10-10T10:18:17.539Z,5.00
2022-10-10T10:20:47.345Z,4.32
2022-10-10T10:23:24.348Z,5.45
2022-10-10T10:26:00.941Z,5.10
2022-10-10T10:28:28.400Z,4.40
2022-10-10T10:30:57.616Z,4.05
2022-10-10T10:34:01.974Z,4.50
2022-10-10T10:39:40.981Z,3.90
2022-10-10T10:42:21.509Z,4.60
2022-10-10T10:45:14.806Z,4.25
2022-10-10T10:47:56.997Z,4.60
2022-10-10T10:50:38.021Z,4.30
2022-10-10T10:53:29.974Z,4.25
2022-10-10T10:56:17.656Z,4.20
2022-10-10T10:59:24.110Z,3.90
2022-10-10T11:01:57.013Z,4.45
2022-10-10T11:05:17.481Z,4.30
2022-10-10T11:07:28.175Z,5.15
2022-10-10T11:10:27.856Z,4.53
2022-10-10T11:13:06.180Z,4.43
2022-10-10T11:18:58.088Z,4.30
2022-10-10T11:21:27.004Z,4.15
2022-10-10T11:24:03.894Z,4.00
2022-10-10T11:26:35.616Z,4.03
2022-10-10T11:29:09.425Z,3.92
2022-10-10T11:31:57.829Z,4.18
2022-10-10T11:34:32.341Z,4.13
2022-10-10T11:37:05.918Z,4.10
2022-10-10T11:39:46.066Z,4.20
2022-10-10T11:42:19.766Z,4.38
2022-10-10T11:45:10.071Z,3.97
2022-10-10T11:47:48.093Z,4.00
2022-10-10T11:50:25.724Z,4.30
2022-10-10T11:53:01.868Z,4.78
2022-10-10T11:55:41.307Z,5.00
2022-10-10T11:58:07.875Z,4.00
2022-10-10T12:00:39.241Z,4.47
2022-10-10T12:03:08.629Z,5.20
2022-10-10T12:05:39.759Z,4.68
2022-10-10T12:08:19.166Z,7.43
2022-10-10T12:10:58.706Z,5.03
2022-10-10T12:13:34.129Z,4.90
2022-10-10T12:16:07.283Z,5.10
2022-10-10T12:18:46.936Z,4.95
2022-10-10T12:21:17.753Z,4.90
2022-10-10T12:23:49.478Z,5.05
2022-10-10T12:26:20.418Z,5.30
2022-10-10T12:29:12.398Z,5.40
2022-10-10T12:31:40.377Z,5.00
2022-10-10T12:34:15.047Z,4.78
2022-10-10T12:36:54.166Z,5.45
2022-10-10T12:40:16.501Z,5.65
2022-10-10T12:42:45.999Z,5.00
2022-10-10T12:45:33.770Z,5.65
2022-10-10T12:48:05.997Z,4.97
2022-10-10T12:50:41.904Z,5.07
2022-10-10T12:53:19.629Z,5.05
2022-10-10T12:55:54.995Z,4.63
2022-10-10T12:58:29.556Z,5.57
2022-10-10T13:00:59.867Z,4.20
2022-10-10T13:03:42.448Z,4.43
2022-10-10T13:06:16.409Z,7.57
2022-10-10T13:08:43.743Z,5.20
2022-10-10T13:11:13.662Z,5.43
2022-10-10T13:13:49.037Z,4.97
2022-10-10T13:16:19.006Z,4.20
2022-10-10T13:18:57.554Z,4.50
2022-10-10T13:21:28.519Z,4.10
2022-10-10T13:24:03.719Z,3.70
2022-10-10T13:26:38.473Z,3.80
2022-10-10T13:29:31.963Z,4.20
2022-10-10T13:32:21.682Z,3.55
2022-10-10T13:34:53.264Z,3.25
2022-10-10T13:37:21.425Z,5.90
2022-10-10T13:39:50.196Z,3.40
2022-10-10T13:42:40.350Z,3.10
2022-10-10T13:45:30.702Z,3.05
2022-10-10T13:48:11.289Z,3.28
2022-10-10T13:50:43.854Z,3.15
2022-10-10T13:53:31.999Z,3.15
2022-10-10T13:56:17.484Z,3.40
2022-10-10T13:58:49.862Z,3.90
2022-10-10T14:01:38.660Z,3.20
2022-10-10T14:04:36.138Z,3.25
2022-10-10T14:07:15.942Z,3.42
2022-10-10T14:09:55.784Z,3.10
2022-10-10T14:12:32.383Z,2.95
2022-10-10T14:15:00.729Z,2.90
2022-10-10T14:17:28.543Z,2.50
2022-10-10T14:19:55.756Z,2.20
2022-10-10T14:22:23.290Z,2.60
2022-10-10T14:24:50.133Z,1.40
2022-10-10T14:27:25.339Z,1.20
2022-10-10T14:29:53.972Z,1.13
2022-10-10T14:32:21.449Z,1.63
2022-10-10T14:34:48.208Z,1.30
2022-10-10T14:37:22.946Z,2.00
2022-10-10T14:39:50.058Z,2.38
2022-10-10T14:42:18.559Z,2.00
2022-10-10T14:44:45.179Z,1.80
2022-10-10T14:47:20.643Z,1.92
2022-10-10T14:49:47.368Z,2.25
2022-10-10T14:52:15.164Z,0.80
2022-10-10T14:54:41.867Z,2.92
2022-10-10T14:57:10.415Z,0.60
2022-10-10T14:59:47.331Z,0.70
2022-10-10T15:02:20.916Z,2.55
2022-10-10T15:04:47.872Z,1.08
2022-10-10T15:07:16.069Z,0.80
2022-10-10T15:12:36.130Z,2.03
2022-10-10T15:15:03.475Z,1.55
2022-10-10T15:17:31.075Z,1.55
2022-10-10T15:19:57.619Z,1.88
2022-10-10T15:22:24.259Z,1.58
2022-10-10T15:24:51.077Z,1.55
2022-10-10T15:27:17.684Z,1.85
2022-10-10T15:29:44.446Z,1.75
2022-10-10T15:32:11.268Z,1.88
2022-10-10T15:34:37.862Z,2.20
2022-10-10T15:37:04.541Z,1.63
2022-10-10T15:39:31.434Z,2.00
2022-10-10T15:41:58.086Z,2.03
2022-10-10T15:44:25.094Z,1.70
2022-10-10T15:46:52.047Z,1.70
2022-10-10T15:49:18.868Z,1.85
2022-10-10T15:51:47.978Z,1.85
2022-10-10T15:54:15.027Z,2.35
2022-10-10T15:56:42.235Z,2.05
2022-10-10T15:59:10.272Z,2.20
2022-10-10T16:01:37.053Z,2.03
2022-10-10T16:04:04.376Z,2.10
2022-10-10T16:06:31.087Z,2.88
2022-10-10T16:09:10.392Z,2.42
2022-10-10T16:11:44.313Z,2.22
2022-10-10T16:14:10.965Z,2.38
2022-10-10T16:16:37.502Z,2.22
2022-10-10T16:19:04.093Z,2.70
2022-10-10T16:21:33.479Z,3.13
2022-10-10T16:24:00.461Z,3.30
2022-10-10T16:26:32.015Z,2.67
2022-10-10T16:29:00.093Z,2.67
2022-10-10T16:31:27.470Z,2.70
2022-10-10T16:33:55.688Z,2.63
2022-10-10T16:36:28.190Z,2.95
2022-10-10T16:38:57.788Z,2.78
2022-10-10T16:41:47.010Z,2.35
2022-10-10T16:44:15.255Z,2.70
2022-10-10T16:46:41.857Z,2.70
2022-10-10T16:49:11.522Z,2.55
2022-10-10T16:51:38.135Z,2.75
2022-10-10T16:54:05.843Z,3.08
2022-10-10T16:56:32.836Z,2.85
2022-10-10T16:59:01.426Z,3.00
2022-10-10T17:01:28.863Z,2.50
2022-10-10T17:03:58.457Z,2.85
2022-10-10T17:06:25.209Z,2.67
2022-10-10T17:08:53.718Z,3.17
2022-10-10T17:11:21.706Z,2.40
2022-10-10T17:13:49.399Z,2.20
2022-10-10T17:16:59.957Z,3.20
2022-10-10T17:21:24.920Z,2.83
2022-10-10T17:23:51.879Z,2.40
2022-10-10T17:26:25.935Z,3.13
2022-10-10T17:28:57.823Z,3.33
2022-10-10T17:31:25.834Z,2.47
2022-10-10T17:33:54.331Z,2.60
2022-10-10T17:36:26.930Z,4.65
2022-10-10T17:38:56.045Z,3.70
2022-10-10T17:41:23.653Z,4.70
2022-10-10T17:43:50.559Z,3.55
2022-10-10T17:46:37.102Z,3.63
2022-10-10T17:49:09.427Z,3.00
2022-10-10T17:51:39.890Z,3.58
2022-10-10T17:54:07.720Z,4.03
2022-10-10T17:56:35.129Z,3.92
2022-10-10T17:59:05.475Z,4.22
2022-10-10T18:01:33.361Z,4.25
2022-10-10T18:04:00.331Z,7.40
2022-10-10T18:06:29.022Z,4.72
2022-10-10T18:08:56.101Z,5.32
2022-10-10T18:11:25.775Z,6.57
2022-10-10T18:13:52.606Z,4.57
2022-10-10T18:16:22.076Z,3.00
2022-10-10T18:18:51.588Z,3.28
2022-10-10T18:21:23.217Z,3.70
2022-10-10T18:23:50.476Z,3.22
2022-10-10T18:26:20.492Z,4.22
2022-10-10T18:28:47.965Z,5.55
2022-10-10T18:31:17.437Z,3.67
2022-10-10T18:33:44.960Z,5.20
2022-10-10T18:36:14.697Z,3.75
2022-10-10T18:38:41.755Z,3.47
2022-10-10T18:41:16.663Z,3.13
2022-10-10T18:43:44.697Z,3.22
2022-10-10T18:46:15.400Z,3.25
2022-10-10T18:48:43.195Z,4.63
2022-10-10T18:51:15.940Z,3.83
2022-10-10T18:53:44.971Z,3.53
2022-10-10T18:56:15.256Z,10.02
2022-10-10T18:58:42.429Z,5.90
2022-10-10T19:01:14.156Z,4.05
2022-10-10T19:03:42.755Z,4.00
2022-10-10T19:06:12.663Z,11.57
2022-10-10T19:08:40.117Z,5.65
2022-10-10T19:11:08.667Z,3.72
2022-10-10T19:13:35.289Z,4.80
2022-10-10T19:16:07.337Z,9.75
2022-10-10T19:18:34.954Z,6.93
2022-10-10T19:21:05.975Z,10.32
2022-10-10T19:23:33.847Z,7.97
2022-10-10T19:26:05.591Z,6.68
2022-10-10T19:28:33.641Z,5.45
2022-10-10T19:31:09.437Z,8.70
2022-10-10T19:33:36.191Z,9.45
2022-10-10T19:36:05.459Z,14.38
2022-10-10T19:38:34.422Z,15.52
2022-10-10T19:41:05.230Z,4.80
2022-10-10T19:43:32.221Z,5.00
2022-10-10T19:45:58.775Z,4.47
2022-10-10T19:48:25.327Z,5.35
2022-10-10T19:50:53.790Z,5.63
2022-10-10T19:53:20.476Z,6.28
2022-10-10T19:55:58.569Z,5.82
2022-10-10T19:58:25.459Z,6.55
2022-10-10T20:00:51.953Z,6.50
2022-10-10T20:03:18.700Z,8.73
2022-10-10T20:05:45.341Z,8.95
2022-10-10T20:08:12.128Z,8.45
2022-10-10T20:10:43.255Z,8.65
2022-10-10T20:13:14.827Z,8.85
2022-10-10T20:15:48.749Z,7.70
2022-10-10T20:18:18.417Z,7.07
2022-10-10T20:20:47.880Z,7.00
2022-10-10T20:23:15.798Z,7.45
2022-10-10T20:25:44.349Z,7.03
2022-10-10T20:28:13.159Z,6.63
2022-10-10T20:30:42.192Z,6.60
2022-10-10T20:33:09.314Z,6.35
2022-10-10T20:35:37.021Z,7.53
2022-10-10T20:38:04.900Z,6.65
2022-10-10T20:40:32.142Z,6.88
2022-10-10T20:42:58.805Z,6.43
2022-10-10T20:45:25.315Z,7.05
2022-10-10T20:47:51.991Z,6.40
2022-10-10T20:50:19.108Z,5.78
2022-10-10T20:52:45.749Z,6.68
2022-10-10T20:55:12.419Z,7.38
2022-10-10T20:57:39.063Z,6.38
2022-10-10T21:00:06.430Z,6.15
2022-10-10T21:02:34.306Z,6.18
2022-10-10T21:05:01.067Z,6.60
2022-10-10T21:07:30.809Z,5.47
2022-10-10T21:09:59.043Z,8.10
2022-10-10T21:12:25.650Z,6.85
2022-10-10T21:14:52.167Z,6.35
2022-10-10T21:17:18.910Z,6.60
2022-10-10T21:19:45.468Z,6.57
2022-10-10T21:22:12.125Z,6.32
2022-10-10T21:24:39.477Z,6.82
2022-10-10T21:27:06.027Z,5.97
2022-10-10T21:29:32.615Z,6.55
2022-10-10T21:32:00.711Z,7.32
2022-10-10T21:34:27.256Z,6.32
2022-10-10T21:36:53.895Z,7.07
2022-10-10T21:39:20.727Z,5.80
2022-10-10T21:41:47.390Z,5.30
2022-10-10T21:44:15.766Z,5.10
2022-10-10T21:46:43.078Z,5.93
2022-10-10T21:49:11.714Z,5.90
2022-10-10T21:51:40.710Z,5.70
2022-10-10T21:54:19.859Z,5.55
2022-10-10T21:56:59.685Z,5.55
2022-10-10T21:59:32.700Z,8.27
2022-10-10T22:02:03.404Z,5.35
2022-10-10T22:04:31.501Z,5.97
2022-10-10T22:06:59.206Z,5.65
2022-10-10T22:09:25.912Z,5.45
2022-10-10T22:11:52.779Z,5.35
2022-10-10T22:14:19.490Z,5.38
2022-10-10T22:16:46.109Z,4.97
2022-10-10T22:19:12.678Z,4.97
2022-10-10T22:21:39.667Z,5.85
2022-10-10T22:24:07.814Z,5.15
2022-10-10T22:26:35.270Z,5.78
2022-10-10T22:29:02.229Z,5.63
2022-10-10T22:31:29.318Z,4.95
2022-10-10T22:33:56.168Z,5.18
2022-10-10T22:36:22.769Z,5.78
2022-10-10T22:38:49.702Z,6.18
2022-10-10T22:41:16.469Z,6.20
2022-10-10T22:43:43.056Z,5.90
2022-10-10T22:46:09.748Z,5.82
2022-10-10T22:48:37.050Z,5.47
2022-10-10T22:51:16.153Z,5.10
2022-10-10T22:53:44.269Z,5.15
2022-10-10T22:56:15.244Z,4.93
2022-10-10T22:58:42.902Z,5.32
2022-10-10T23:01:13.528Z,6.07
2022-10-10T23:03:40.472Z,5.25
2022-10-10T23:06:07.933Z,6.05
2022-10-10T23:08:35.014Z,5.60
2022-10-10T23:11:02.080Z,5.13
2022-10-10T23:13:29.582Z,5.65
2022-10-10T23:15:56.144Z,5.50
2022-10-10T23:18:22.978Z,4.80
2022-10-10T23:20:50.693Z,4.25
2022-10-10T23:23:18.512Z,5.07
2022-10-10T23:25:46.932Z,4.53
2022-10-10T23:28:14.582Z,4.70
2022-10-10T23:30:43.656Z,5.25
2022-10-10T23:33:11.409Z,5.47
2022-10-10T23:35:38.087Z,4.82
2022-10-10T23:38:05.438Z,5.70
2022-10-10T23:40:32.863Z,5.28
2022-10-10T23:42:59.674Z,5.65
2022-10-10T23:45:28.246Z,5.20
2022-10-10T23:47:54.857Z,5.80
2022-10-10T23:50:21.376Z,5.88
2022-10-10T23:52:47.927Z,5.28
2022-10-10T23:55:14.396Z,5.40
2022-10-10T23:57:40.941Z,5.22
